首页
METAR-TAF:

METAR-TAF

机场 :

Cazaux, 法国

纬度: 44-32N, 经度: 001-08W, 海拔: 25米

当前天气观测

该预报发布于17分钟前的01:30 UTC
风速4节,风向东转东北
温度 13°C
湿度 94%
气压 1024 hPa
能見度: 7000
小雨

METAR: LFBC 070130Z AUTO 06004KT 7000 -RA ///TCU 13/12 Q1024

时间: 03:47 (01:47 UTC)

预报

该预报发布于8小时和36分钟前的17:11 UTC
预报有效从06日的 17点(UTC)到 07日的 15点(UTC)
风速2节,风向多变
能见度10公里或以上
少量云层高于500英尺
多云层高于4000英尺
从 06日的 1800点(UTC)
风速5节,风向东转东北
能见度10公里或以上
散云层高于500英尺
多云层高于4000英尺
短暂存在
从 06日的 18点(UTC)到 07日的 06点(UTC)
能見度: 3000
多云层高于500英尺

TAF: LFBC 061711Z 0617/0715 VRB02KT 9999 FEW005 BKN040 FM061800 06005KT 9999 SCT005 BKN040 TEMPO 0618/0706 3000 RA BKN005

超过4000个机场的气象观测和天气预报(METAR&TAF报告)。

可查询的气象台以黄色和红色小点在地图上表示。

将鼠标移到小点上方,可查看气象台名称。

然后点击查看天气观测和预报。

如需切换地图:点击带黑十字的绿色按钮放大地图;点击带横线的绿色按钮缩小地图;或者点击绿色箭头查看邻近地区的地图。


METAR-TAF: